sensor_id;sensor_type;location;lat;lon;timestamp;P1;durP1;ratioP1;P2;durP2;ratioP2
12253;SDS011;6189;52.526;13.390;2022-11-15T00:00:38;41.20;;;33.77;;
12253;SDS011;6189;52.526;13.390;2022-11-15T00:03:24;38.97;;;32.13;;
12253;SDS011;6189;52.526;13.390;2022-11-15T00:06:11;35.97;;;31.50;;
12253;SDS011;6189;52.526;13.390;2022-11-15T00:08:58;35.93;;;30.63;;
12253;SDS011;6189;52.526;13.390;2022-11-15T00:11:45;36.67;;;31.60;;
12253;SDS011;6189;52.526;13.390;2022-11-15T00:14:31;35.60;;;30.40;;
12253;SDS011;6189;52.526;13.390;2022-11-15T00:17:16;35.57;;;31.87;;
12253;SDS011;6189;52.526;13.390;2022-11-15T00:20:02;38.77;;;33.23;;
12253;SDS011;6189;52.526;13.390;2022-11-15T00:22:48;35.50;;;31.70;;
12253;SDS011;6189;52.526;13.390;2022-11-15T00:25:35;38.30;;;31.53;;
12253;SDS011;6189;52.526;13.390;2022-11-15T00:28:21;37.07;;;31.50;;
12253;SDS011;6189;52.526;13.390;2022-11-15T00:31:07;36.57;;;31.27;;
12253;SDS011;6189;52.526;13.390;2022-11-15T00:33:55;36.73;;;31.57;;
12253;SDS011;6189;52.526;13.390;2022-11-15T00:36:40;38.63;;;31.40;;
12253;SDS011;6189;52.526;13.390;2022-11-15T00:39:26;38.43;;;32.13;;
12253;SDS011;6189;52.526;13.390;2022-11-15T00:42:13;39.43;;;33.40;;
12253;SDS011;6189;52.526;13.390;2022-11-15T00:44:58;37.40;;;32.37;;
12253;SDS011;6189;52.526;13.390;2022-11-15T00:47:44;35.37;;;29.90;;
12253;SDS011;6189;52.526;13.390;2022-11-15T00:50:30;33.80;;;30.20;;
12253;SDS011;6189;52.526;13.390;2022-11-15T00:53:15;38.53;;;32.63;;
12253;SDS011;6189;52.526;13.390;2022-11-15T00:56:01;37.13;;;32.40;;
12253;SDS011;6189;52.526;13.390;2022-11-15T00:58:48;37.80;;;32.00;;
12253;SDS011;6189;52.526;13.390;2022-11-15T01:01:33;36.20;;;31.23;;
12253;SDS011;6189;52.526;13.390;2022-11-15T01:04:19;36.87;;;32.63;;
12253;SDS011;6189;52.526;13.390;2022-11-15T01:07:05;38.40;;;32.33;;
12253;SDS011;6189;52.526;13.390;2022-11-15T01:09:50;36.57;;;31.30;;
12253;SDS011;6189;52.526;13.390;2022-11-15T01:12:36;41.40;;;33.23;;
12253;SDS011;6189;52.526;13.390;2022-11-15T01:15:23;37.57;;;31.23;;
12253;SDS011;6189;52.526;13.390;2022-11-15T01:18:09;39.23;;;32.70;;
12253;SDS011;6189;52.526;13.390;2022-11-15T01:20:54;37.40;;;31.43;;
12253;SDS011;6189;52.526;13.390;2022-11-15T01:23:40;35.77;;;31.33;;
12253;SDS011;6189;52.526;13.390;2022-11-15T01:26:26;36.47;;;32.47;;
12253;SDS011;6189;52.526;13.390;2022-11-15T01:29:11;37.77;;;30.83;;
12253;SDS011;6189;52.526;13.390;2022-11-15T01:31:58;37.90;;;32.33;;
12253;SDS011;6189;52.526;13.390;2022-11-15T01:34:44;38.73;;;34.10;;
12253;SDS011;6189;52.526;13.390;2022-11-15T01:37:29;35.93;;;30.40;;
12253;SDS011;6189;52.526;13.390;2022-11-15T01:40:15;40.37;;;32.83;;
12253;SDS011;6189;52.526;13.390;2022-11-15T01:46:06;35.50;;;29.97;;
12253;SDS011;6189;52.526;13.390;2022-11-15T01:49:05;37.57;;;30.90;;
12253;SDS011;6189;52.526;13.390;2022-11-15T01:51:57;36.20;;;31.03;;
12253;SDS011;6189;52.526;13.390;2022-11-15T01:54:45;34.50;;;30.77;;
12253;SDS011;6189;52.526;13.390;2022-11-15T01:57:32;36.13;;;31.90;;
12253;SDS011;6189;52.526;13.390;2022-11-15T02:00:18;36.17;;;30.97;;
12253;SDS011;6189;52.526;13.390;2022-11-15T02:03:04;40.20;;;33.33;;
12253;SDS011;6189;52.526;13.390;2022-11-15T02:05:51;35.60;;;31.07;;
12253;SDS011;6189;52.526;13.390;2022-11-15T02:08:38;36.07;;;31.30;;
12253;SDS011;6189;52.526;13.390;2022-11-15T02:11:24;36.97;;;31.03;;
12253;SDS011;6189;52.526;13.390;2022-11-15T02:14:09;36.47;;;31.87;;
12253;SDS011;6189;52.526;13.390;2022-11-15T02:16:58;38.30;;;33.40;;
12253;SDS011;6189;52.526;13.390;2022-11-15T02:23:13;37.60;;;31.57;;
12253;SDS011;6189;52.526;13.390;2022-11-15T02:33:10;35.60;;;30.60;;
12253;SDS011;6189;52.526;13.390;2022-11-15T02:36:08;37.97;;;32.00;;
12253;SDS011;6189;52.526;13.390;2022-11-15T02:38:58;38.87;;;32.43;;
12253;SDS011;6189;52.526;13.390;2022-11-15T02:41:50;36.07;;;32.17;;
12253;SDS011;6189;52.526;13.390;2022-11-15T02:44:40;35.90;;;30.87;;
12253;SDS011;6189;52.526;13.390;2022-11-15T02:47:31;35.57;;;30.70;;
12253;SDS011;6189;52.526;13.390;2022-11-15T02:50:21;38.57;;;33.57;;
12253;SDS011;6189;52.526;13.390;2022-11-15T02:53:09;36.00;;;30.97;;
12253;SDS011;6189;52.526;13.390;2022-11-15T02:55:55;35.23;;;31.50;;
12253;SDS011;6189;52.526;13.390;2022-11-15T02:58:48;39.53;;;34.43;;
12253;SDS011;6189;52.526;13.390;2022-11-15T03:01:45;35.03;;;31.23;;
12253;SDS011;6189;52.526;13.390;2022-11-15T03:04:45;39.23;;;32.70;;
12253;SDS011;6189;52.526;13.390;2022-11-15T03:07:40;41.83;;;32.33;;
12253;SDS011;6189;52.526;13.390;2022-11-15T03:10:36;37.60;;;32.67;;
12253;SDS011;6189;52.526;13.390;2022-11-15T03:13:31;38.47;;;32.30;;
12253;SDS011;6189;52.526;13.390;2022-11-15T03:16:24;38.53;;;31.47;;
12253;SDS011;6189;52.526;13.390;2022-11-15T03:19:17;35.23;;;30.00;;
12253;SDS011;6189;52.526;13.390;2022-11-15T03:22:08;33.97;;;29.63;;
12253;SDS011;6189;52.526;13.390;2022-11-15T03:24:57;37.30;;;32.50;;
12253;SDS011;6189;52.526;13.390;2022-11-15T03:27:46;37.87;;;31.77;;
12253;SDS011;6189;52.526;13.390;2022-11-15T03:30:37;35.37;;;31.33;;
12253;SDS011;6189;52.526;13.390;2022-11-15T03:33:24;37.37;;;33.03;;
12253;SDS011;6189;52.526;13.390;2022-11-15T03:36:12;35.90;;;31.90;;
12253;SDS011;6189;52.526;13.390;2022-11-15T03:38:59;37.97;;;31.90;;
12253;SDS011;6189;52.526;13.390;2022-11-15T03:41:48;34.33;;;29.87;;
12253;SDS011;6189;52.526;13.390;2022-11-15T03:44:40;36.77;;;31.73;;
12253;SDS011;6189;52.526;13.390;2022-11-15T03:47:32;39.03;;;32.20;;
12253;SDS011;6189;52.526;13.390;2022-11-15T03:50:19;34.47;;;30.73;;
12253;SDS011;6189;52.526;13.390;2022-11-15T03:53:06;35.70;;;31.07;;
12253;SDS011;6189;52.526;13.390;2022-11-15T03:55:54;37.80;;;31.03;;
12253;SDS011;6189;52.526;13.390;2022-11-15T03:58:39;37.73;;;33.00;;
12253;SDS011;6189;52.526;13.390;2022-11-15T04:01:25;38.23;;;32.03;;
12253;SDS011;6189;52.526;13.390;2022-11-15T04:04:10;38.70;;;32.20;;
12253;SDS011;6189;52.526;13.390;2022-11-15T04:06:56;39.13;;;31.73;;
12253;SDS011;6189;52.526;13.390;2022-11-15T04:09:41;37.87;;;32.47;;
12253;SDS011;6189;52.526;13.390;2022-11-15T04:12:42;36.53;;;31.97;;
12253;SDS011;6189;52.526;13.390;2022-11-15T04:15:30;35.27;;;31.03;;
12253;SDS011;6189;52.526;13.390;2022-11-15T04:18:16;38.53;;;31.43;;
12253;SDS011;6189;52.526;13.390;2022-11-15T04:21:02;40.67;;;32.27;;
12253;SDS011;6189;52.526;13.390;2022-11-15T04:24:16;34.27;;;30.53;;
12253;SDS011;6189;52.526;13.390;2022-11-15T04:27:02;34.80;;;30.50;;
12253;SDS011;6189;52.526;13.390;2022-11-15T04:29:49;36.93;;;31.97;;
12253;SDS011;6189;52.526;13.390;2022-11-15T04:32:34;34.80;;;30.20;;
12253;SDS011;6189;52.526;13.390;2022-11-15T04:35:19;33.97;;;29.83;;
12253;SDS011;6189;52.526;13.390;2022-11-15T04:38:06;37.27;;;31.80;;
12253;SDS011;6189;52.526;13.390;2022-11-15T04:40:52;33.13;;;29.30;;
12253;SDS011;6189;52.526;13.390;2022-11-15T04:43:38;36.03;;;31.00;;
12253;SDS011;6189;52.526;13.390;2022-11-15T04:46:25;34.17;;;30.47;;
12253;SDS011;6189;52.526;13.390;2022-11-15T04:49:11;34.67;;;30.50;;
12253;SDS011;6189;52.526;13.390;2022-11-15T04:51:56;34.73;;;30.73;;
12253;SDS011;6189;52.526;13.390;2022-11-15T04:54:41;38.57;;;31.93;;
12253;SDS011;6189;52.526;13.390;2022-11-15T04:57:27;38.60;;;32.43;;
12253;SDS011;6189;52.526;13.390;2022-11-15T05:00:14;37.57;;;30.93;;
12253;SDS011;6189;52.526;13.390;2022-11-15T05:03:02;33.97;;;29.80;;
12253;SDS011;6189;52.526;13.390;2022-11-15T05:06:06;37.77;;;31.67;;
12253;SDS011;6189;52.526;13.390;2022-11-15T05:08:51;36.20;;;31.30;;
12253;SDS011;6189;52.526;13.390;2022-11-15T05:11:37;34.40;;;30.67;;
12253;SDS011;6189;52.526;13.390;2022-11-15T05:14:23;35.77;;;31.60;;
12253;SDS011;6189;52.526;13.390;2022-11-15T05:17:08;39.03;;;32.87;;
12253;SDS011;6189;52.526;13.390;2022-11-15T05:19:55;38.33;;;31.97;;
12253;SDS011;6189;52.526;13.390;2022-11-15T05:22:41;34.17;;;30.47;;
12253;SDS011;6189;52.526;13.390;2022-11-15T05:25:27;38.10;;;32.07;;
12253;SDS011;6189;52.526;13.390;2022-11-15T05:28:12;34.03;;;30.27;;
12253;SDS011;6189;52.526;13.390;2022-11-15T05:31:00;37.33;;;30.93;;
12253;SDS011;6189;52.526;13.390;2022-11-15T05:33:46;35.03;;;30.80;;
12253;SDS011;6189;52.526;13.390;2022-11-15T05:36:35;34.53;;;30.40;;
12253;SDS011;6189;52.526;13.390;2022-11-15T05:39:22;34.63;;;30.57;;
12253;SDS011;6189;52.526;13.390;2022-11-15T05:42:10;32.93;;;29.27;;
12253;SDS011;6189;52.526;13.390;2022-11-15T05:44:57;38.47;;;31.63;;
12253;SDS011;6189;52.526;13.390;2022-11-15T05:47:45;33.97;;;30.30;;
12253;SDS011;6189;52.526;13.390;2022-11-15T05:50:32;34.70;;;29.40;;
12253;SDS011;6189;52.526;13.390;2022-11-15T05:53:19;33.93;;;28.93;;
12253;SDS011;6189;52.526;13.390;2022-11-15T05:56:09;34.03;;;29.37;;
12253;SDS011;6189;52.526;13.390;2022-11-15T05:58:55;34.97;;;31.00;;
12253;SDS011;6189;52.526;13.390;2022-11-15T06:01:42;36.23;;;30.87;;
12253;SDS011;6189;52.526;13.390;2022-11-15T06:04:27;33.67;;;30.10;;
12253;SDS011;6189;52.526;13.390;2022-11-15T06:07:13;34.47;;;30.73;;
12253;SDS011;6189;52.526;13.390;2022-11-15T06:09:59;35.17;;;30.97;;
12253;SDS011;6189;52.526;13.390;2022-11-15T06:12:45;37.27;;;32.10;;
12253;SDS011;6189;52.526;13.390;2022-11-15T06:15:31;35.43;;;29.60;;
12253;SDS011;6189;52.526;13.390;2022-11-15T06:18:17;35.93;;;30.33;;
12253;SDS011;6189;52.526;13.390;2022-11-15T06:21:03;35.00;;;30.67;;
12253;SDS011;6189;52.526;13.390;2022-11-15T06:23:48;40.10;;;31.03;;
12253;SDS011;6189;52.526;13.390;2022-11-15T06:26:35;36.00;;;30.83;;
12253;SDS011;6189;52.526;13.390;2022-11-15T06:29:21;35.10;;;30.50;;
12253;SDS011;6189;52.526;13.390;2022-11-15T06:32:06;35.70;;;31.03;;
12253;SDS011;6189;52.526;13.390;2022-11-15T06:34:52;34.60;;;30.90;;
12253;SDS011;6189;52.526;13.390;2022-11-15T06:37:37;37.70;;;32.03;;
12253;SDS011;6189;52.526;13.390;2022-11-15T06:40:23;34.93;;;30.37;;
12253;SDS011;6189;52.526;13.390;2022-11-15T06:43:10;36.27;;;31.80;;
12253;SDS011;6189;52.526;13.390;2022-11-15T06:45:56;36.30;;;30.33;;
12253;SDS011;6189;52.526;13.390;2022-11-15T06:48:42;36.60;;;29.67;;
12253;SDS011;6189;52.526;13.390;2022-11-15T06:51:28;34.10;;;30.17;;
12253;SDS011;6189;52.526;13.390;2022-11-15T06:54:13;38.57;;;33.17;;
12253;SDS011;6189;52.526;13.390;2022-11-15T06:56:59;34.07;;;30.10;;
12253;SDS011;6189;52.526;13.390;2022-11-15T06:59:46;41.13;;;31.37;;
12253;SDS011;6189;52.526;13.390;2022-11-15T07:02:31;35.73;;;31.03;;
12253;SDS011;6189;52.526;13.390;2022-11-15T07:05:16;37.80;;;31.07;;
12253;SDS011;6189;52.526;13.390;2022-11-15T07:08:02;36.50;;;31.13;;
12253;SDS011;6189;52.526;13.390;2022-11-15T07:10:49;40.00;;;31.93;;
12253;SDS011;6189;52.526;13.390;2022-11-15T07:13:35;37.80;;;30.90;;
12253;SDS011;6189;52.526;13.390;2022-11-15T07:16:22;35.37;;;31.03;;
12253;SDS011;6189;52.526;13.390;2022-11-15T07:19:08;37.03;;;31.20;;
12253;SDS011;6189;52.526;13.390;2022-11-15T07:21:54;38.43;;;32.27;;
12253;SDS011;6189;52.526;13.390;2022-11-15T07:24:39;36.67;;;31.03;;
12253;SDS011;6189;52.526;13.390;2022-11-15T07:27:25;41.80;;;32.73;;
12253;SDS011;6189;52.526;13.390;2022-11-15T07:30:11;40.13;;;32.97;;
12253;SDS011;6189;52.526;13.390;2022-11-15T07:32:58;39.47;;;34.00;;
12253;SDS011;6189;52.526;13.390;2022-11-15T07:35:45;38.50;;;33.10;;
12253;SDS011;6189;52.526;13.390;2022-11-15T07:38:33;45.77;;;33.07;;
12253;SDS011;6189;52.526;13.390;2022-11-15T07:41:20;38.53;;;31.73;;
12253;SDS011;6189;52.526;13.390;2022-11-15T07:44:05;36.20;;;30.73;;
12253;SDS011;6189;52.526;13.390;2022-11-15T07:46:51;39.53;;;32.63;;
12253;SDS011;6189;52.526;13.390;2022-11-15T07:49:38;42.20;;;34.00;;
12253;SDS011;6189;52.526;13.390;2022-11-15T07:52:23;38.20;;;32.63;;
12253;SDS011;6189;52.526;13.390;2022-11-15T07:55:09;41.17;;;33.57;;
12253;SDS011;6189;52.526;13.390;2022-11-15T07:57:59;37.63;;;32.50;;
12253;SDS011;6189;52.526;13.390;2022-11-15T08:00:46;38.00;;;33.63;;
12253;SDS011;6189;52.526;13.390;2022-11-15T08:03:32;38.60;;;31.77;;
12253;SDS011;6189;52.526;13.390;2022-11-15T08:06:19;39.87;;;32.37;;
12253;SDS011;6189;52.526;13.390;2022-11-15T08:09:04;45.30;;;33.93;;
12253;SDS011;6189;52.526;13.390;2022-11-15T08:11:50;36.90;;;32.17;;
12253;SDS011;6189;52.526;13.390;2022-11-15T08:14:35;41.80;;;32.80;;
12253;SDS011;6189;52.526;13.390;2022-11-15T08:17:22;41.13;;;32.50;;
12253;SDS011;6189;52.526;13.390;2022-11-15T08:20:08;38.23;;;33.80;;
12253;SDS011;6189;52.526;13.390;2022-11-15T08:26:37;36.77;;;30.63;;
12253;SDS011;6189;52.526;13.390;2022-11-15T08:29:25;38.77;;;32.83;;
12253;SDS011;6189;52.526;13.390;2022-11-15T08:32:10;39.40;;;32.13;;
12253;SDS011;6189;52.526;13.390;2022-11-15T08:34:56;35.27;;;29.67;;
12253;SDS011;6189;52.526;13.390;2022-11-15T08:37:42;37.97;;;31.63;;
12253;SDS011;6189;52.526;13.390;2022-11-15T08:40:27;36.97;;;30.90;;
12253;SDS011;6189;52.526;13.390;2022-11-15T08:43:14;36.60;;;32.57;;
12253;SDS011;6189;52.526;13.390;2022-11-15T08:46:00;38.57;;;33.23;;
12253;SDS011;6189;52.526;13.390;2022-11-15T08:48:45;38.70;;;32.50;;
12253;SDS011;6189;52.526;13.390;2022-11-15T08:51:31;36.10;;;31.60;;
12253;SDS011;6189;52.526;13.390;2022-11-15T08:54:16;37.03;;;30.20;;
12253;SDS011;6189;52.526;13.390;2022-11-15T08:57:02;37.87;;;30.73;;
12253;SDS011;6189;52.526;13.390;2022-11-15T08:59:49;37.40;;;30.80;;
12253;SDS011;6189;52.526;13.390;2022-11-15T09:02:37;37.23;;;30.17;;
12253;SDS011;6189;52.526;13.390;2022-11-15T09:05:22;41.03;;;30.33;;
12253;SDS011;6189;52.526;13.390;2022-11-15T09:08:08;40.57;;;28.93;;
12253;SDS011;6189;52.526;13.390;2022-11-15T09:10:54;39.37;;;29.30;;
12253;SDS011;6189;52.526;13.390;2022-11-15T09:13:39;32.83;;;27.20;;
12253;SDS011;6189;52.526;13.390;2022-11-15T09:16:26;31.80;;;26.67;;
12253;SDS011;6189;52.526;13.390;2022-11-15T09:19:11;30.60;;;25.97;;
12253;SDS011;6189;52.526;13.390;2022-11-15T09:21:58;31.20;;;26.03;;
12253;SDS011;6189;52.526;13.390;2022-11-15T09:24:43;31.80;;;24.40;;
12253;SDS011;6189;52.526;13.390;2022-11-15T09:27:29;30.57;;;25.47;;
12253;SDS011;6189;52.526;13.390;2022-11-15T09:30:15;27.70;;;23.47;;
12253;SDS011;6189;52.526;13.390;2022-11-15T09:33:07;29.10;;;24.33;;
12253;SDS011;6189;52.526;13.390;2022-11-15T09:35:52;27.50;;;23.90;;
12253;SDS011;6189;52.526;13.390;2022-11-15T09:38:38;27.17;;;24.03;;
12253;SDS011;6189;52.526;13.390;2022-11-15T09:41:33;39.43;;;25.57;;
12253;SDS011;6189;52.526;13.390;2022-11-15T09:44:43;29.53;;;23.67;;
12253;SDS011;6189;52.526;13.390;2022-11-15T09:48:00;36.40;;;24.73;;
12253;SDS011;6189;52.526;13.390;2022-11-15T09:51:01;32.40;;;24.20;;
12253;SDS011;6189;52.526;13.390;2022-11-15T09:53:49;27.80;;;22.90;;
12253;SDS011;6189;52.526;13.390;2022-11-15T09:56:42;26.00;;;22.27;;
12253;SDS011;6189;52.526;13.390;2022-11-15T10:02:57;23.73;;;20.57;;
12253;SDS011;6189;52.526;13.390;2022-11-15T10:05:54;29.97;;;21.93;;
12253;SDS011;6189;52.526;13.390;2022-11-15T10:08:46;27.57;;;22.43;;
12253;SDS011;6189;52.526;13.390;2022-11-15T10:11:39;24.93;;;22.07;;
12253;SDS011;6189;52.526;13.390;2022-11-15T10:14:26;25.77;;;21.47;;
12253;SDS011;6189;52.526;13.390;2022-11-15T10:17:21;26.70;;;21.47;;
12253;SDS011;6189;52.526;13.390;2022-11-15T10:20:23;25.17;;;21.23;;
12253;SDS011;6189;52.526;13.390;2022-11-15T10:23:13;25.10;;;22.43;;
12253;SDS011;6189;52.526;13.390;2022-11-15T10:26:00;29.40;;;22.60;;
12253;SDS011;6189;52.526;13.390;2022-11-15T10:28:46;27.27;;;20.20;;
12253;SDS011;6189;52.526;13.390;2022-11-15T10:31:32;29.03;;;22.23;;
12253;SDS011;6189;52.526;13.390;2022-11-15T10:34:18;26.73;;;22.07;;
12253;SDS011;6189;52.526;13.390;2022-11-15T10:37:04;24.83;;;20.93;;
12253;SDS011;6189;52.526;13.390;2022-11-15T10:39:57;26.23;;;21.10;;
12253;SDS011;6189;52.526;13.390;2022-11-15T10:42:48;24.10;;;21.60;;
12253;SDS011;6189;52.526;13.390;2022-11-15T10:45:49;23.33;;;20.83;;
12253;SDS011;6189;52.526;13.390;2022-11-15T10:48:36;26.03;;;21.10;;
12253;SDS011;6189;52.526;13.390;2022-11-15T10:51:23;22.60;;;20.20;;
12253;SDS011;6189;52.526;13.390;2022-11-15T10:54:12;27.87;;;20.80;;
12253;SDS011;6189;52.526;13.390;2022-11-15T10:57:04;22.53;;;19.83;;
12253;SDS011;6189;52.526;13.390;2022-11-15T10:59:54;22.90;;;20.40;;
12253;SDS011;6189;52.526;13.390;2022-11-15T11:02:44;22.67;;;20.23;;
12253;SDS011;6189;52.526;13.390;2022-11-15T11:05:41;24.93;;;19.20;;
12253;SDS011;6189;52.526;13.390;2022-11-15T11:08:26;23.93;;;19.50;;
12253;SDS011;6189;52.526;13.390;2022-11-15T11:11:12;23.23;;;20.33;;
12253;SDS011;6189;52.526;13.390;2022-11-15T11:13:59;22.50;;;20.10;;
12253;SDS011;6189;52.526;13.390;2022-11-15T11:16:59;23.23;;;18.43;;
12253;SDS011;6189;52.526;13.390;2022-11-15T11:19:55;22.70;;;19.83;;
12253;SDS011;6189;52.526;13.390;2022-11-15T11:22:50;26.40;;;20.37;;
12253;SDS011;6189;52.526;13.390;2022-11-15T11:25:48;23.17;;;20.70;;
12253;SDS011;6189;52.526;13.390;2022-11-15T11:28:40;24.57;;;19.77;;
12253;SDS011;6189;52.526;13.390;2022-11-15T11:31:36;25.57;;;20.00;;
12253;SDS011;6189;52.526;13.390;2022-11-15T11:34:34;22.63;;;20.23;;
12253;SDS011;6189;52.526;13.390;2022-11-15T11:37:33;23.13;;;20.30;;
12253;SDS011;6189;52.526;13.390;2022-11-15T11:40:27;23.03;;;20.40;;
12253;SDS011;6189;52.526;13.390;2022-11-15T11:43:16;23.03;;;18.97;;
12253;SDS011;6189;52.526;13.390;2022-11-15T11:46:17;25.90;;;18.57;;
12253;SDS011;6189;52.526;13.390;2022-11-15T11:49:18;22.77;;;19.23;;
12253;SDS011;6189;52.526;13.390;2022-11-15T11:52:09;21.37;;;19.10;;
12253;SDS011;6189;52.526;13.390;2022-11-15T11:54:59;24.20;;;19.33;;
12253;SDS011;6189;52.526;13.390;2022-11-15T11:57:51;23.23;;;18.83;;
12253;SDS011;6189;52.526;13.390;2022-11-15T12:00:45;21.60;;;18.57;;
12253;SDS011;6189;52.526;13.390;2022-11-15T12:03:38;21.10;;;17.60;;
12253;SDS011;6189;52.526;13.390;2022-11-15T12:06:29;22.10;;;17.73;;
12253;SDS011;6189;52.526;13.390;2022-11-15T12:09:26;21.67;;;19.20;;
12253;SDS011;6189;52.526;13.390;2022-11-15T12:12:17;21.87;;;18.60;;
12253;SDS011;6189;52.526;13.390;2022-11-15T12:15:11;18.47;;;16.47;;
12253;SDS011;6189;52.526;13.390;2022-11-15T12:18:00;19.43;;;17.37;;
12253;SDS011;6189;52.526;13.390;2022-11-15T12:20:49;21.53;;;17.43;;
12253;SDS011;6189;52.526;13.390;2022-11-15T12:23:40;21.37;;;18.80;;
12253;SDS011;6189;52.526;13.390;2022-11-15T12:26:31;21.67;;;19.37;;
12253;SDS011;6189;52.526;13.390;2022-11-15T12:29:23;22.63;;;19.57;;
12253;SDS011;6189;52.526;13.390;2022-11-15T12:32:16;22.77;;;17.73;;
12253;SDS011;6189;52.526;13.390;2022-11-15T12:35:20;25.10;;;18.87;;
12253;SDS011;6189;52.526;13.390;2022-11-15T12:38:12;22.23;;;18.77;;
12253;SDS011;6189;52.526;13.390;2022-11-15T12:41:19;25.97;;;18.07;;
12253;SDS011;6189;52.526;13.390;2022-11-15T12:44:09;20.70;;;17.47;;
12253;SDS011;6189;52.526;13.390;2022-11-15T12:47:03;20.70;;;18.50;;
12253;SDS011;6189;52.526;13.390;2022-11-15T12:50:10;19.83;;;17.63;;
12253;SDS011;6189;52.526;13.390;2022-11-15T12:56:20;23.63;;;17.87;;
12253;SDS011;6189;52.526;13.390;2022-11-15T12:59:07;19.83;;;17.73;;
12253;SDS011;6189;52.526;13.390;2022-11-15T13:01:57;21.67;;;17.83;;
12253;SDS011;6189;52.526;13.390;2022-11-15T13:04:44;21.13;;;18.07;;
12253;SDS011;6189;52.526;13.390;2022-11-15T13:10:43;25.13;;;19.77;;
12253;SDS011;6189;52.526;13.390;2022-11-15T13:13:43;20.63;;;18.23;;
12253;SDS011;6189;52.526;13.390;2022-11-15T13:16:29;21.90;;;18.10;;
12253;SDS011;6189;52.526;13.390;2022-11-15T13:19:24;22.43;;;17.27;;
12253;SDS011;6189;52.526;13.390;2022-11-15T13:22:11;21.07;;;17.93;;
12253;SDS011;6189;52.526;13.390;2022-11-15T13:25:15;20.97;;;17.60;;
12253;SDS011;6189;52.526;13.390;2022-11-15T13:28:09;22.17;;;18.70;;
12253;SDS011;6189;52.526;13.390;2022-11-15T13:34:26;24.17;;;19.40;;
12253;SDS011;6189;52.526;13.390;2022-11-15T13:37:27;20.83;;;18.40;;
12253;SDS011;6189;52.526;13.390;2022-11-15T13:40:18;21.30;;;18.20;;
12253;SDS011;6189;52.526;13.390;2022-11-15T13:43:15;25.30;;;18.10;;
12253;SDS011;6189;52.526;13.390;2022-11-15T13:46:12;23.90;;;17.67;;
12253;SDS011;6189;52.526;13.390;2022-11-15T13:49:01;22.33;;;17.40;;
12253;SDS011;6189;52.526;13.390;2022-11-15T13:51:49;20.03;;;17.93;;
12253;SDS011;6189;52.526;13.390;2022-11-15T13:54:39;20.23;;;18.23;;
12253;SDS011;6189;52.526;13.390;2022-11-15T13:57:29;21.03;;;17.40;;
12253;SDS011;6189;52.526;13.390;2022-11-15T14:00:27;23.77;;;18.13;;
12253;SDS011;6189;52.526;13.390;2022-11-15T14:03:18;23.17;;;18.33;;
12253;SDS011;6189;52.526;13.390;2022-11-15T14:06:07;22.17;;;17.60;;
12253;SDS011;6189;52.526;13.390;2022-11-15T14:09:01;22.57;;;18.03;;
12253;SDS011;6189;52.526;13.390;2022-11-15T14:11:59;18.93;;;16.83;;
12253;SDS011;6189;52.526;13.390;2022-11-15T14:14:46;23.63;;;18.40;;
12253;SDS011;6189;52.526;13.390;2022-11-15T14:17:33;20.67;;;17.43;;
12253;SDS011;6189;52.526;13.390;2022-11-15T14:20:28;21.30;;;16.67;;
12253;SDS011;6189;52.526;13.390;2022-11-15T14:23:19;18.73;;;16.57;;
12253;SDS011;6189;52.526;13.390;2022-11-15T14:26:27;17.30;;;15.50;;
12253;SDS011;6189;52.526;13.390;2022-11-15T14:29:23;19.93;;;16.03;;
12253;SDS011;6189;52.526;13.390;2022-11-15T14:32:12;19.67;;;17.33;;
12253;SDS011;6189;52.526;13.390;2022-11-15T14:35:00;18.83;;;16.47;;
12253;SDS011;6189;52.526;13.390;2022-11-15T14:37:47;18.83;;;16.23;;
12253;SDS011;6189;52.526;13.390;2022-11-15T14:40:33;18.03;;;16.07;;
12253;SDS011;6189;52.526;13.390;2022-11-15T14:43:20;18.17;;;15.67;;
12253;SDS011;6189;52.526;13.390;2022-11-15T14:46:05;18.07;;;15.33;;
12253;SDS011;6189;52.526;13.390;2022-11-15T14:48:50;21.93;;;15.93;;
12253;SDS011;6189;52.526;13.390;2022-11-15T14:51:36;17.13;;;15.37;;
12253;SDS011;6189;52.526;13.390;2022-11-15T14:54:21;19.53;;;15.67;;
12253;SDS011;6189;52.526;13.390;2022-11-15T14:57:07;18.93;;;15.33;;
12253;SDS011;6189;52.526;13.390;2022-11-15T14:59:54;18.27;;;16.10;;
12253;SDS011;6189;52.526;13.390;2022-11-15T15:02:41;17.67;;;15.50;;
12253;SDS011;6189;52.526;13.390;2022-11-15T15:05:30;17.70;;;15.73;;
12253;SDS011;6189;52.526;13.390;2022-11-15T15:08:17;18.30;;;16.30;;
12253;SDS011;6189;52.526;13.390;2022-11-15T15:11:03;18.30;;;16.40;;
12253;SDS011;6189;52.526;13.390;2022-11-15T15:13:55;17.20;;;15.40;;
12253;SDS011;6189;52.526;13.390;2022-11-15T15:16:45;19.97;;;17.17;;
12253;SDS011;6189;52.526;13.390;2022-11-15T15:19:30;22.50;;;17.10;;
12253;SDS011;6189;52.526;13.390;2022-11-15T15:22:17;18.47;;;16.50;;
12253;SDS011;6189;52.526;13.390;2022-11-15T15:25:14;19.10;;;16.37;;
12253;SDS011;6189;52.526;13.390;2022-11-15T15:28:06;19.20;;;15.73;;
12253;SDS011;6189;52.526;13.390;2022-11-15T15:30:51;19.03;;;17.00;;
12253;SDS011;6189;52.526;13.390;2022-11-15T15:33:38;20.93;;;17.77;;
12253;SDS011;6189;52.526;13.390;2022-11-15T15:36:24;23.07;;;17.73;;
12253;SDS011;6189;52.526;13.390;2022-11-15T15:39:09;20.60;;;17.00;;
12253;SDS011;6189;52.526;13.390;2022-11-15T15:41:55;20.97;;;18.30;;
12253;SDS011;6189;52.526;13.390;2022-11-15T15:44:41;21.40;;;17.03;;
12253;SDS011;6189;52.526;13.390;2022-11-15T15:47:27;21.80;;;17.80;;
12253;SDS011;6189;52.526;13.390;2022-11-15T15:50:17;20.13;;;18.03;;
12253;SDS011;6189;52.526;13.390;2022-11-15T15:53:06;21.43;;;17.00;;
12253;SDS011;6189;52.526;13.390;2022-11-15T15:55:52;22.00;;;17.43;;
12253;SDS011;6189;52.526;13.390;2022-11-15T15:58:37;22.67;;;17.10;;
12253;SDS011;6189;52.526;13.390;2022-11-15T16:01:23;23.10;;;17.47;;
12253;SDS011;6189;52.526;13.390;2022-11-15T16:04:09;20.07;;;17.80;;
12253;SDS011;6189;52.526;13.390;2022-11-15T16:06:59;19.87;;;16.70;;
12253;SDS011;6189;52.526;13.390;2022-11-15T16:09:46;18.97;;;16.90;;
12253;SDS011;6189;52.526;13.390;2022-11-15T16:12:47;23.10;;;19.47;;
12253;SDS011;6189;52.526;13.390;2022-11-15T16:15:32;22.17;;;17.80;;
12253;SDS011;6189;52.526;13.390;2022-11-15T16:18:20;21.07;;;18.63;;
12253;SDS011;6189;52.526;13.390;2022-11-15T16:21:05;20.73;;;18.63;;
12253;SDS011;6189;52.526;13.390;2022-11-15T16:23:54;20.77;;;18.43;;
12253;SDS011;6189;52.526;13.390;2022-11-15T16:26:39;21.97;;;18.33;;
12253;SDS011;6189;52.526;13.390;2022-11-15T16:29:25;21.87;;;19.13;;
12253;SDS011;6189;52.526;13.390;2022-11-15T16:32:12;21.87;;;19.57;;
12253;SDS011;6189;52.526;13.390;2022-11-15T16:34:57;23.37;;;19.60;;
12253;SDS011;6189;52.526;13.390;2022-11-15T16:37:43;21.77;;;18.30;;
12253;SDS011;6189;52.526;13.390;2022-11-15T16:40:31;23.00;;;20.10;;
12253;SDS011;6189;52.526;13.390;2022-11-15T16:43:18;22.53;;;20.23;;
12253;SDS011;6189;52.526;13.390;2022-11-15T16:46:06;22.57;;;20.33;;
12253;SDS011;6189;52.526;13.390;2022-11-15T16:48:57;24.23;;;21.63;;
12253;SDS011;6189;52.526;13.390;2022-11-15T16:51:42;25.03;;;21.30;;
12253;SDS011;6189;52.526;13.390;2022-11-15T16:54:29;25.37;;;22.70;;
12253;SDS011;6189;52.526;13.390;2022-11-15T16:57:16;25.17;;;22.60;;